sensor_id;sensor_type;location;lat;lon;timestamp;P1;durP1;ratioP1;P2;durP2;ratioP2
31018;SDS011;17689;45.610;5.858;2022-10-18T00:02:22;7.20;;;5.73;;
31018;SDS011;17689;45.610;5.858;2022-10-18T00:04:48;11.07;;;6.53;;
31018;SDS011;17689;45.610;5.858;2022-10-18T00:07:14;8.20;;;6.20;;
31018;SDS011;17689;45.610;5.858;2022-10-18T00:09:40;9.50;;;6.37;;
31018;SDS011;17689;45.610;5.858;2022-10-18T00:12:06;7.50;;;5.37;;
31018;SDS011;17689;45.610;5.858;2022-10-18T00:14:33;10.00;;;5.70;;
31018;SDS011;17689;45.610;5.858;2022-10-18T00:16:59;10.23;;;5.23;;
31018;SDS011;17689;45.610;5.858;2022-10-18T00:19:25;13.90;;;6.30;;
31018;SDS011;17689;45.610;5.858;2022-10-18T00:21:51;7.83;;;5.60;;
31018;SDS011;17689;45.610;5.858;2022-10-18T00:24:17;6.63;;;5.20;;
31018;SDS011;17689;45.610;5.858;2022-10-18T00:26:44;10.17;;;5.50;;
31018;SDS011;17689;45.610;5.858;2022-10-18T00:29:12;8.80;;;5.73;;
31018;SDS011;17689;45.610;5.858;2022-10-18T00:31:38;9.60;;;5.57;;
31018;SDS011;17689;45.610;5.858;2022-10-18T00:34:06;12.03;;;5.67;;
31018;SDS011;17689;45.610;5.858;2022-10-18T00:36:32;10.50;;;5.77;;
31018;SDS011;17689;45.610;5.858;2022-10-18T00:38:59;11.40;;;5.53;;
31018;SDS011;17689;45.610;5.858;2022-10-18T00:41:32;11.67;;;5.53;;
31018;SDS011;17689;45.610;5.858;2022-10-18T00:44:01;11.00;;;5.90;;
31018;SDS011;17689;45.610;5.858;2022-10-18T00:46:28;8.77;;;5.63;;
31018;SDS011;17689;45.610;5.858;2022-10-18T00:48:56;9.30;;;5.70;;
31018;SDS011;17689;45.610;5.858;2022-10-18T00:51:24;6.73;;;5.70;;
31018;SDS011;17689;45.610;5.858;2022-10-18T00:53:52;8.70;;;5.70;;
31018;SDS011;17689;45.610;5.858;2022-10-18T00:56:18;7.90;;;5.40;;
31018;SDS011;17689;45.610;5.858;2022-10-18T00:58:45;7.93;;;4.97;;
31018;SDS011;17689;45.610;5.858;2022-10-18T01:01:12;6.97;;;5.33;;
31018;SDS011;17689;45.610;5.858;2022-10-18T01:03:39;5.60;;;4.90;;
31018;SDS011;17689;45.610;5.858;2022-10-18T01:06:06;9.70;;;5.50;;
31018;SDS011;17689;45.610;5.858;2022-10-18T01:18:33;7.87;;;5.50;;
31018;SDS011;17689;45.610;5.858;2022-10-18T01:25:59;12.60;;;5.53;;
31018;SDS011;17689;45.610;5.858;2022-10-18T01:31:00;10.93;;;5.60;;
31018;SDS011;17689;45.610;5.858;2022-10-18T01:33:30;9.50;;;6.00;;
31018;SDS011;17689;45.610;5.858;2022-10-18T01:38:28;10.40;;;5.70;;
31018;SDS011;17689;45.610;5.858;2022-10-18T01:40:55;12.10;;;5.80;;
31018;SDS011;17689;45.610;5.858;2022-10-18T01:43:22;9.70;;;5.93;;
31018;SDS011;17689;45.610;5.858;2022-10-18T01:45:49;10.53;;;5.67;;
31018;SDS011;17689;45.610;5.858;2022-10-18T01:48:15;8.30;;;5.40;;
31018;SDS011;17689;45.610;5.858;2022-10-18T01:50:42;9.47;;;5.50;;
31018;SDS011;17689;45.610;5.858;2022-10-18T01:59:02;8.57;;;5.37;;
31018;SDS011;17689;45.610;5.858;2022-10-18T02:03:55;8.10;;;5.40;;
31018;SDS011;17689;45.610;5.858;2022-10-18T02:06:28;7.77;;;5.27;;
31018;SDS011;17689;45.610;5.858;2022-10-18T02:09:02;8.37;;;5.67;;
31018;SDS011;17689;45.610;5.858;2022-10-18T02:11:30;10.60;;;5.47;;
31018;SDS011;17689;45.610;5.858;2022-10-18T02:14:07;8.33;;;5.73;;
31018;SDS011;17689;45.610;5.858;2022-10-18T02:16:39;11.33;;;5.90;;
31018;SDS011;17689;45.610;5.858;2022-10-18T02:19:14;13.20;;;5.53;;
31018;SDS011;17689;45.610;5.858;2022-10-18T02:21:41;7.40;;;5.43;;
31018;SDS011;17689;45.610;5.858;2022-10-18T02:24:09;8.53;;;5.00;;
31018;SDS011;17689;45.610;5.858;2022-10-18T02:26:36;9.77;;;5.87;;
31018;SDS011;17689;45.610;5.858;2022-10-18T02:29:02;7.03;;;5.30;;
31018;SDS011;17689;45.610;5.858;2022-10-18T02:31:30;7.17;;;5.40;;
31018;SDS011;17689;45.610;5.858;2022-10-18T02:38:50;7.93;;;5.87;;
31018;SDS011;17689;45.610;5.858;2022-10-18T02:41:23;7.53;;;5.60;;
31018;SDS011;17689;45.610;5.858;2022-10-18T02:43:50;8.73;;;5.87;;
31018;SDS011;17689;45.610;5.858;2022-10-18T02:46:17;9.47;;;5.97;;
31018;SDS011;17689;45.610;5.858;2022-10-18T02:48:44;10.33;;;6.33;;
31018;SDS011;17689;45.610;5.858;2022-10-18T02:51:10;7.70;;;6.07;;
31018;SDS011;17689;45.610;5.858;2022-10-18T02:53:36;9.30;;;6.40;;
31018;SDS011;17689;45.610;5.858;2022-10-18T02:56:02;12.93;;;6.10;;
31018;SDS011;17689;45.610;5.858;2022-10-18T02:58:29;10.20;;;6.57;;
31018;SDS011;17689;45.610;5.858;2022-10-18T03:00:55;9.20;;;6.70;;
31018;SDS011;17689;45.610;5.858;2022-10-18T03:03:21;8.70;;;6.53;;
31018;SDS011;17689;45.610;5.858;2022-10-18T03:05:48;8.83;;;6.33;;
31018;SDS011;17689;45.610;5.858;2022-10-18T03:08:14;8.80;;;6.23;;
31018;SDS011;17689;45.610;5.858;2022-10-18T03:10:42;9.57;;;6.83;;
31018;SDS011;17689;45.610;5.858;2022-10-18T03:13:08;12.23;;;6.43;;
31018;SDS011;17689;45.610;5.858;2022-10-18T03:15:34;10.07;;;6.60;;
31018;SDS011;17689;45.610;5.858;2022-10-18T03:18:01;8.07;;;6.17;;
31018;SDS011;17689;45.610;5.858;2022-10-18T03:20:27;11.30;;;6.00;;
31018;SDS011;17689;45.610;5.858;2022-10-18T03:22:53;6.93;;;6.23;;
31018;SDS011;17689;45.610;5.858;2022-10-18T03:25:20;8.57;;;6.43;;
31018;SDS011;17689;45.610;5.858;2022-10-18T03:27:46;10.00;;;6.20;;
31018;SDS011;17689;45.610;5.858;2022-10-18T03:30:12;9.87;;;5.90;;
31018;SDS011;17689;45.610;5.858;2022-10-18T03:32:41;11.37;;;6.30;;
31018;SDS011;17689;45.610;5.858;2022-10-18T03:35:07;8.33;;;5.50;;
31018;SDS011;17689;45.610;5.858;2022-10-18T03:37:34;9.03;;;5.70;;
31018;SDS011;17689;45.610;5.858;2022-10-18T03:40:01;7.20;;;6.00;;
31018;SDS011;17689;45.610;5.858;2022-10-18T03:42:28;12.27;;;5.53;;
31018;SDS011;17689;45.610;5.858;2022-10-18T03:44:54;9.50;;;5.80;;
31018;SDS011;17689;45.610;5.858;2022-10-18T03:47:20;11.07;;;6.47;;
31018;SDS011;17689;45.610;5.858;2022-10-18T03:49:46;10.33;;;6.40;;
31018;SDS011;17689;45.610;5.858;2022-10-18T03:52:12;9.63;;;6.20;;
31018;SDS011;17689;45.610;5.858;2022-10-18T03:54:38;6.87;;;5.60;;
31018;SDS011;17689;45.610;5.858;2022-10-18T03:57:04;11.63;;;6.40;;
31018;SDS011;17689;45.610;5.858;2022-10-18T03:59:31;9.47;;;6.33;;
31018;SDS011;17689;45.610;5.858;2022-10-18T04:01:57;10.13;;;6.30;;
31018;SDS011;17689;45.610;5.858;2022-10-18T04:04:23;10.00;;;6.37;;
31018;SDS011;17689;45.610;5.858;2022-10-18T04:06:49;8.20;;;6.27;;
31018;SDS011;17689;45.610;5.858;2022-10-18T04:09:15;10.00;;;6.63;;
31018;SDS011;17689;45.610;5.858;2022-10-18T04:11:41;9.97;;;6.47;;
31018;SDS011;17689;45.610;5.858;2022-10-18T04:14:08;8.13;;;5.90;;
31018;SDS011;17689;45.610;5.858;2022-10-18T04:16:34;7.83;;;5.77;;
31018;SDS011;17689;45.610;5.858;2022-10-18T04:19:00;12.40;;;6.30;;
31018;SDS011;17689;45.610;5.858;2022-10-18T04:21:26;9.30;;;6.00;;
31018;SDS011;17689;45.610;5.858;2022-10-18T04:23:52;9.20;;;6.30;;
31018;SDS011;17689;45.610;5.858;2022-10-18T04:26:18;6.97;;;6.27;;
31018;SDS011;17689;45.610;5.858;2022-10-18T04:28:45;8.00;;;6.20;;
31018;SDS011;17689;45.610;5.858;2022-10-18T04:31:11;7.30;;;6.00;;
31018;SDS011;17689;45.610;5.858;2022-10-18T04:33:37;8.07;;;6.20;;
31018;SDS011;17689;45.610;5.858;2022-10-18T04:36:03;14.23;;;6.03;;
31018;SDS011;17689;45.610;5.858;2022-10-18T04:38:30;7.73;;;5.80;;
31018;SDS011;17689;45.610;5.858;2022-10-18T04:40:56;8.93;;;5.70;;
31018;SDS011;17689;45.610;5.858;2022-10-18T04:43:23;8.27;;;5.80;;
31018;SDS011;17689;45.610;5.858;2022-10-18T04:45:49;11.90;;;6.03;;
31018;SDS011;17689;45.610;5.858;2022-10-18T04:48:16;10.40;;;5.83;;
31018;SDS011;17689;45.610;5.858;2022-10-18T04:50:42;9.33;;;5.67;;
31018;SDS011;17689;45.610;5.858;2022-10-18T04:53:09;11.20;;;6.07;;
31018;SDS011;17689;45.610;5.858;2022-10-18T04:55:35;10.30;;;6.23;;
31018;SDS011;17689;45.610;5.858;2022-10-18T04:58:01;7.50;;;5.17;;
31018;SDS011;17689;45.610;5.858;2022-10-18T05:00:27;8.93;;;5.87;;
31018;SDS011;17689;45.610;5.858;2022-10-18T05:02:57;9.07;;;6.10;;
31018;SDS011;17689;45.610;5.858;2022-10-18T05:05:23;12.77;;;6.40;;
31018;SDS011;17689;45.610;5.858;2022-10-18T05:07:50;8.40;;;5.67;;
31018;SDS011;17689;45.610;5.858;2022-10-18T05:10:16;13.67;;;6.27;;
31018;SDS011;17689;45.610;5.858;2022-10-18T05:12:43;10.77;;;6.57;;
31018;SDS011;17689;45.610;5.858;2022-10-18T05:15:09;7.93;;;5.77;;
31018;SDS011;17689;45.610;5.858;2022-10-18T05:17:36;8.67;;;6.27;;
31018;SDS011;17689;45.610;5.858;2022-10-18T05:20:02;8.53;;;6.10;;
31018;SDS011;17689;45.610;5.858;2022-10-18T05:22:29;7.73;;;5.80;;
31018;SDS011;17689;45.610;5.858;2022-10-18T05:24:55;8.37;;;5.77;;
31018;SDS011;17689;45.610;5.858;2022-10-18T05:27:21;9.87;;;6.30;;
31018;SDS011;17689;45.610;5.858;2022-10-18T05:29:47;9.83;;;5.90;;
31018;SDS011;17689;45.610;5.858;2022-10-18T05:32:14;7.93;;;5.77;;
31018;SDS011;17689;45.610;5.858;2022-10-18T05:34:40;8.43;;;5.83;;
31018;SDS011;17689;45.610;5.858;2022-10-18T05:37:06;10.20;;;5.90;;
31018;SDS011;17689;45.610;5.858;2022-10-18T05:39:32;9.97;;;6.40;;
31018;SDS011;17689;45.610;5.858;2022-10-18T05:41:59;8.07;;;5.43;;
31018;SDS011;17689;45.610;5.858;2022-10-18T05:44:26;13.00;;;6.13;;
31018;SDS011;17689;45.610;5.858;2022-10-18T05:46:52;8.00;;;5.57;;
31018;SDS011;17689;45.610;5.858;2022-10-18T05:49:18;15.07;;;6.10;;
31018;SDS011;17689;45.610;5.858;2022-10-18T05:51:44;10.70;;;5.97;;
31018;SDS011;17689;45.610;5.858;2022-10-18T05:54:11;8.23;;;5.83;;
31018;SDS011;17689;45.610;5.858;2022-10-18T05:56:37;10.27;;;5.50;;
31018;SDS011;17689;45.610;5.858;2022-10-18T05:59:03;12.20;;;5.80;;
31018;SDS011;17689;45.610;5.858;2022-10-18T06:01:34;8.70;;;5.40;;
31018;SDS011;17689;45.610;5.858;2022-10-18T06:04:00;11.13;;;5.67;;
31018;SDS011;17689;45.610;5.858;2022-10-18T06:06:27;10.93;;;6.37;;
31018;SDS011;17689;45.610;5.858;2022-10-18T06:08:53;11.47;;;5.77;;
31018;SDS011;17689;45.610;5.858;2022-10-18T06:11:19;9.90;;;5.90;;
31018;SDS011;17689;45.610;5.858;2022-10-18T06:13:47;12.87;;;6.03;;
31018;SDS011;17689;45.610;5.858;2022-10-18T06:16:28;11.63;;;5.93;;
31018;SDS011;17689;45.610;5.858;2022-10-18T06:18:55;15.77;;;7.87;;
31018;SDS011;17689;45.610;5.858;2022-10-18T06:21:22;12.43;;;7.07;;
31018;SDS011;17689;45.610;5.858;2022-10-18T06:23:49;16.00;;;6.70;;
31018;SDS011;17689;45.610;5.858;2022-10-18T06:26:16;10.27;;;6.63;;
31018;SDS011;17689;45.610;5.858;2022-10-18T06:28:42;10.00;;;6.10;;
31018;SDS011;17689;45.610;5.858;2022-10-18T06:31:08;11.27;;;6.60;;
31018;SDS011;17689;45.610;5.858;2022-10-18T06:33:35;9.70;;;7.17;;
31018;SDS011;17689;45.610;5.858;2022-10-18T06:36:10;10.13;;;6.40;;
31018;SDS011;17689;45.610;5.858;2022-10-18T06:38:37;12.00;;;7.03;;
31018;SDS011;17689;45.610;5.858;2022-10-18T06:41:03;13.90;;;7.33;;
31018;SDS011;17689;45.610;5.858;2022-10-18T06:43:30;9.97;;;6.43;;
31018;SDS011;17689;45.610;5.858;2022-10-18T06:45:56;10.27;;;7.10;;
31018;SDS011;17689;45.610;5.858;2022-10-18T06:48:23;11.40;;;6.90;;
31018;SDS011;17689;45.610;5.858;2022-10-18T06:50:56;11.73;;;7.37;;
31018;SDS011;17689;45.610;5.858;2022-10-18T06:53:26;10.63;;;6.23;;
31018;SDS011;17689;45.610;5.858;2022-10-18T06:55:57;9.33;;;6.80;;
31018;SDS011;17689;45.610;5.858;2022-10-18T06:58:23;11.53;;;6.63;;
31018;SDS011;17689;45.610;5.858;2022-10-18T07:00:49;9.27;;;6.60;;
31018;SDS011;17689;45.610;5.858;2022-10-18T07:03:16;9.03;;;6.70;;
31018;SDS011;17689;45.610;5.858;2022-10-18T07:05:42;8.80;;;6.30;;
31018;SDS011;17689;45.610;5.858;2022-10-18T07:08:08;14.80;;;6.53;;
31018;SDS011;17689;45.610;5.858;2022-10-18T07:10:34;13.73;;;6.37;;
31018;SDS011;17689;45.610;5.858;2022-10-18T07:13:01;13.83;;;7.30;;
31018;SDS011;17689;45.610;5.858;2022-10-18T07:15:27;13.03;;;6.83;;
31018;SDS011;17689;45.610;5.858;2022-10-18T07:17:53;10.90;;;6.63;;
31018;SDS011;17689;45.610;5.858;2022-10-18T07:20:19;11.30;;;7.27;;
31018;SDS011;17689;45.610;5.858;2022-10-18T07:22:45;11.13;;;7.50;;
31018;SDS011;17689;45.610;5.858;2022-10-18T07:25:11;12.50;;;7.53;;
31018;SDS011;17689;45.610;5.858;2022-10-18T07:27:39;9.93;;;7.00;;
31018;SDS011;17689;45.610;5.858;2022-10-18T07:30:11;13.33;;;7.53;;
31018;SDS011;17689;45.610;5.858;2022-10-18T07:32:37;15.63;;;7.80;;
31018;SDS011;17689;45.610;5.858;2022-10-18T07:35:04;16.70;;;7.80;;
31018;SDS011;17689;45.610;5.858;2022-10-18T07:37:30;13.53;;;7.73;;
31018;SDS011;17689;45.610;5.858;2022-10-18T07:39:56;11.67;;;7.97;;
31018;SDS011;17689;45.610;5.858;2022-10-18T07:42:22;10.30;;;7.67;;
31018;SDS011;17689;45.610;5.858;2022-10-18T07:44:49;11.93;;;7.03;;
31018;SDS011;17689;45.610;5.858;2022-10-18T07:47:15;13.27;;;7.33;;
31018;SDS011;17689;45.610;5.858;2022-10-18T07:49:42;13.57;;;7.33;;
31018;SDS011;17689;45.610;5.858;2022-10-18T07:52:08;10.57;;;7.50;;
31018;SDS011;17689;45.610;5.858;2022-10-18T07:54:34;11.83;;;7.67;;
31018;SDS011;17689;45.610;5.858;2022-10-18T07:57:02;13.03;;;7.30;;
31018;SDS011;17689;45.610;5.858;2022-10-18T07:59:29;9.57;;;7.30;;
31018;SDS011;17689;45.610;5.858;2022-10-18T08:01:55;13.57;;;7.30;;
31018;SDS011;17689;45.610;5.858;2022-10-18T08:04:21;13.33;;;7.10;;
31018;SDS011;17689;45.610;5.858;2022-10-18T08:06:47;8.20;;;6.47;;
31018;SDS011;17689;45.610;5.858;2022-10-18T08:09:13;12.73;;;7.40;;
31018;SDS011;17689;45.610;5.858;2022-10-18T08:11:39;9.23;;;6.80;;
31018;SDS011;17689;45.610;5.858;2022-10-18T08:14:05;14.20;;;7.47;;
31018;SDS011;17689;45.610;5.858;2022-10-18T08:16:32;16.40;;;7.53;;
31018;SDS011;17689;45.610;5.858;2022-10-18T08:18:58;16.30;;;7.80;;
31018;SDS011;17689;45.610;5.858;2022-10-18T08:21:25;12.50;;;8.23;;
31018;SDS011;17689;45.610;5.858;2022-10-18T08:23:51;15.00;;;8.40;;
31018;SDS011;17689;45.610;5.858;2022-10-18T08:26:19;12.20;;;8.93;;
31018;SDS011;17689;45.610;5.858;2022-10-18T08:28:45;16.27;;;10.10;;
31018;SDS011;17689;45.610;5.858;2022-10-18T08:31:13;16.17;;;9.63;;
31018;SDS011;17689;45.610;5.858;2022-10-18T08:33:43;16.50;;;10.43;;
31018;SDS011;17689;45.610;5.858;2022-10-18T08:36:11;14.47;;;9.20;;
31018;SDS011;17689;45.610;5.858;2022-10-18T08:38:38;13.93;;;9.10;;
31018;SDS011;17689;45.610;5.858;2022-10-18T08:43:49;30.70;;;10.10;;
31018;SDS011;17689;45.610;5.858;2022-10-18T08:46:17;13.63;;;8.47;;
31018;SDS011;17689;45.610;5.858;2022-10-18T08:48:45;22.17;;;8.80;;
31018;SDS011;17689;45.610;5.858;2022-10-18T08:51:20;25.00;;;10.10;;
31018;SDS011;17689;45.610;5.858;2022-10-18T08:53:57;19.07;;;8.70;;
31018;SDS011;17689;45.610;5.858;2022-10-18T08:56:25;14.67;;;6.63;;
31018;SDS011;17689;45.610;5.858;2022-10-18T08:58:52;8.93;;;6.10;;
31018;SDS011;17689;45.610;5.858;2022-10-18T09:08:55;12.47;;;6.90;;
31018;SDS011;17689;45.610;5.858;2022-10-18T09:22:16;18.43;;;6.87;;
31018;SDS011;17689;45.610;5.858;2022-10-18T09:27:44;13.60;;;6.27;;
31018;SDS011;17689;45.610;5.858;2022-10-18T09:30:17;14.60;;;6.77;;
31018;SDS011;17689;45.610;5.858;2022-10-18T09:35:22;8.60;;;6.50;;
31018;SDS011;17689;45.610;5.858;2022-10-18T09:37:49;12.73;;;7.20;;
31018;SDS011;17689;45.610;5.858;2022-10-18T09:40:19;11.90;;;6.80;;
31018;SDS011;17689;45.610;5.858;2022-10-18T09:42:57;11.50;;;6.77;;
31018;SDS011;17689;45.610;5.858;2022-10-18T09:47:54;10.33;;;7.17;;
31018;SDS011;17689;45.610;5.858;2022-10-18T09:50:24;11.07;;;6.77;;
31018;SDS011;17689;45.610;5.858;2022-10-18T09:53:03;14.53;;;7.07;;
31018;SDS011;17689;45.610;5.858;2022-10-18T09:55:32;12.17;;;6.80;;
31018;SDS011;17689;45.610;5.858;2022-10-18T09:58:00;18.43;;;7.53;;
31018;SDS011;17689;45.610;5.858;2022-10-18T10:00:32;9.80;;;6.33;;
31018;SDS011;17689;45.610;5.858;2022-10-18T10:02:59;19.40;;;7.27;;
31018;SDS011;17689;45.610;5.858;2022-10-18T10:05:26;39.03;;;8.73;;
31018;SDS011;17689;45.610;5.858;2022-10-18T10:07:56;23.57;;;6.93;;
31018;SDS011;17689;45.610;5.858;2022-10-18T10:10:28;24.87;;;7.13;;
31018;SDS011;17689;45.610;5.858;2022-10-18T10:15:39;37.43;;;7.43;;
31018;SDS011;17689;45.610;5.858;2022-10-18T10:23:12;16.60;;;6.10;;
31018;SDS011;17689;45.610;5.858;2022-10-18T10:25:41;12.90;;;6.00;;
31018;SDS011;17689;45.610;5.858;2022-10-18T10:28:17;11.30;;;5.80;;
31018;SDS011;17689;45.610;5.858;2022-10-18T10:30:44;8.33;;;5.70;;
31018;SDS011;17689;45.610;5.858;2022-10-18T10:35:59;12.00;;;5.30;;
31018;SDS011;17689;45.610;5.858;2022-10-18T10:38:26;7.30;;;5.20;;
31018;SDS011;17689;45.610;5.858;2022-10-18T10:40:53;9.10;;;4.97;;
31018;SDS011;17689;45.610;5.858;2022-10-18T10:43:32;12.40;;;5.47;;
31018;SDS011;17689;45.610;5.858;2022-10-18T10:48:50;10.83;;;5.10;;
31018;SDS011;17689;45.610;5.858;2022-10-18T10:51:26;8.47;;;4.90;;
31018;SDS011;17689;45.610;5.858;2022-10-18T10:56:25;7.60;;;4.77;;
31018;SDS011;17689;45.610;5.858;2022-10-18T10:58:52;12.20;;;5.77;;
31018;SDS011;17689;45.610;5.858;2022-10-18T11:01:21;15.53;;;5.80;;
31018;SDS011;17689;45.610;5.858;2022-10-18T11:03:50;8.60;;;5.00;;
31018;SDS011;17689;45.610;5.858;2022-10-18T11:09:03;8.87;;;4.90;;
31018;SDS011;17689;45.610;5.858;2022-10-18T11:11:32;7.43;;;4.83;;
31018;SDS011;17689;45.610;5.858;2022-10-18T11:14:04;13.30;;;5.60;;
31018;SDS011;17689;45.610;5.858;2022-10-18T11:20:09;13.13;;;4.93;;
31018;SDS011;17689;45.610;5.858;2022-10-18T11:22:08;11.73;;;5.37;;
31018;SDS011;17689;45.610;5.858;2022-10-18T11:24:37;11.13;;;5.13;;
31018;SDS011;17689;45.610;5.858;2022-10-18T11:27:12;9.20;;;5.20;;
31018;SDS011;17689;45.610;5.858;2022-10-18T11:32:28;33.63;;;7.87;;
31018;SDS011;17689;45.610;5.858;2022-10-18T11:35:00;17.40;;;5.77;;
31018;SDS011;17689;45.610;5.858;2022-10-18T11:52:47;13.57;;;5.13;;
31018;SDS011;17689;45.610;5.858;2022-10-18T11:55:25;24.40;;;6.13;;
31018;SDS011;17689;45.610;5.858;2022-10-18T12:00:47;23.47;;;5.80;;
31018;SDS011;17689;45.610;5.858;2022-10-18T12:03:37;11.70;;;4.80;;
31018;SDS011;17689;45.610;5.858;2022-10-18T12:06:09;8.77;;;5.00;;
31018;SDS011;17689;45.610;5.858;2022-10-18T12:08:37;13.70;;;6.57;;
31018;SDS011;17689;45.610;5.858;2022-10-18T12:11:07;19.30;;;6.07;;
31018;SDS011;17689;45.610;5.858;2022-10-18T12:13:54;7.83;;;4.90;;
31018;SDS011;17689;45.610;5.858;2022-10-18T12:16:22;8.77;;;4.80;;
31018;SDS011;17689;45.610;5.858;2022-10-18T12:18:56;12.03;;;5.10;;
31018;SDS011;17689;45.610;5.858;2022-10-18T12:21:25;9.60;;;4.93;;
31018;SDS011;17689;45.610;5.858;2022-10-18T12:26:19;11.33;;;4.70;;
31018;SDS011;17689;45.610;5.858;2022-10-18T12:31:26;13.70;;;4.60;;
31018;SDS011;17689;45.610;5.858;2022-10-18T12:33:59;16.77;;;5.20;;
31018;SDS011;17689;45.610;5.858;2022-10-18T12:39:21;12.80;;;4.97;;
31018;SDS011;17689;45.610;5.858;2022-10-18T12:41:49;8.73;;;4.63;;
31018;SDS011;17689;45.610;5.858;2022-10-18T12:44:19;9.10;;;4.43;;
31018;SDS011;17689;45.610;5.858;2022-10-18T12:46:52;11.13;;;4.30;;
31018;SDS011;17689;45.610;5.858;2022-10-18T12:49:23;10.93;;;4.80;;
31018;SDS011;17689;45.610;5.858;2022-10-18T12:52:35;7.80;;;4.30;;
31018;SDS011;17689;45.610;5.858;2022-10-18T12:54:50;13.93;;;4.70;;
31018;SDS011;17689;45.610;5.858;2022-10-18T12:57:25;13.27;;;4.97;;
31018;SDS011;17689;45.610;5.858;2022-10-18T13:00:41;8.70;;;4.87;;
31018;SDS011;17689;45.610;5.858;2022-10-18T13:05:55;10.00;;;4.53;;
31018;SDS011;17689;45.610;5.858;2022-10-18T13:18:51;8.93;;;4.10;;
31018;SDS011;17689;45.610;5.858;2022-10-18T13:21:33;8.33;;;4.80;;
31018;SDS011;17689;45.610;5.858;2022-10-18T13:26:57;6.33;;;4.07;;
31018;SDS011;17689;45.610;5.858;2022-10-18T13:34:47;6.63;;;4.60;;
31018;SDS011;17689;45.610;5.858;2022-10-18T13:39:39;8.33;;;4.37;;
31018;SDS011;17689;45.610;5.858;2022-10-18T13:44:41;6.97;;;4.07;;
31018;SDS011;17689;45.610;5.858;2022-10-18T14:08:14;15.53;;;4.90;;
31018;SDS011;17689;45.610;5.858;2022-10-18T14:11:01;20.10;;;5.33;;
31018;SDS011;17689;45.610;5.858;2022-10-18T14:13:30;23.17;;;4.97;;
31018;SDS011;17689;45.610;5.858;2022-10-18T14:16:02;13.10;;;5.37;;
31018;SDS011;17689;45.610;5.858;2022-10-18T14:18:31;14.03;;;5.20;;
31018;SDS011;17689;45.610;5.858;2022-10-18T14:21:00;39.10;;;6.83;;
31018;SDS011;17689;45.610;5.858;2022-10-18T14:23:30;34.87;;;7.07;;
31018;SDS011;17689;45.610;5.858;2022-10-18T14:26:05;24.30;;;5.23;;
31018;SDS011;17689;45.610;5.858;2022-10-18T14:28:31;16.17;;;5.17;;
31018;SDS011;17689;45.610;5.858;2022-10-18T14:30:58;15.60;;;5.00;;
31018;SDS011;17689;45.610;5.858;2022-10-18T14:33:45;12.60;;;4.77;;
31018;SDS011;17689;45.610;5.858;2022-10-18T14:41:20;13.23;;;4.20;;
31018;SDS011;17689;45.610;5.858;2022-10-18T14:43:47;12.13;;;4.63;;
31018;SDS011;17689;45.610;5.858;2022-10-18T14:46:15;12.47;;;4.83;;
31018;SDS011;17689;45.610;5.858;2022-10-18T14:48:50;8.90;;;4.50;;
31018;SDS011;17689;45.610;5.858;2022-10-18T14:51:16;11.00;;;5.00;;
31018;SDS011;17689;45.610;5.858;2022-10-18T14:53:42;11.63;;;5.77;;
31018;SDS011;17689;45.610;5.858;2022-10-18T14:56:17;8.60;;;4.67;;
31018;SDS011;17689;45.610;5.858;2022-10-18T14:58:44;6.57;;;4.13;;
31018;SDS011;17689;45.610;5.858;2022-10-18T15:01:20;9.97;;;4.40;;
31018;SDS011;17689;45.610;5.858;2022-10-18T15:03:47;12.50;;;6.10;;
31018;SDS011;17689;45.610;5.858;2022-10-18T15:06:17;14.03;;;6.63;;
31018;SDS011;17689;45.610;5.858;2022-10-18T15:08:45;10.43;;;5.90;;
31018;SDS011;17689;45.610;5.858;2022-10-18T15:11:12;10.93;;;5.50;;
31018;SDS011;17689;45.610;5.858;2022-10-18T15:13:59;12.87;;;5.03;;
31018;SDS011;17689;45.610;5.858;2022-10-18T15:16:28;13.73;;;5.90;;
31018;SDS011;17689;45.610;5.858;2022-10-18T15:19:06;16.80;;;9.87;;
31018;SDS011;17689;45.610;5.858;2022-10-18T15:21:33;18.43;;;9.63;;
31018;SDS011;17689;45.610;5.858;2022-10-18T15:27:25;21.67;;;11.90;;
31018;SDS011;17689;45.610;5.858;2022-10-18T15:29:54;19.83;;;11.23;;
31018;SDS011;17689;45.610;5.858;2022-10-18T15:32:26;19.73;;;10.03;;
31018;SDS011;17689;45.610;5.858;2022-10-18T15:34:54;16.97;;;8.17;;
31018;SDS011;17689;45.610;5.858;2022-10-18T15:37:30;11.53;;;7.10;;
31018;SDS011;17689;45.610;5.858;2022-10-18T15:42:43;8.33;;;4.53;;
31018;SDS011;17689;45.610;5.858;2022-10-18T15:50:46;8.93;;;3.97;;
31018;SDS011;17689;45.610;5.858;2022-10-18T15:55:49;5.93;;;3.53;;
31018;SDS011;17689;45.610;5.858;2022-10-18T15:58:24;7.93;;;3.37;;
31018;SDS011;17689;45.610;5.858;2022-10-18T16:00:51;11.20;;;4.10;;
31018;SDS011;17689;45.610;5.858;2022-10-18T16:03:18;7.87;;;3.90;;
31018;SDS011;17689;45.610;5.858;2022-10-18T16:05:46;9.63;;;3.87;;
31018;SDS011;17689;45.610;5.858;2022-10-18T16:08:20;7.23;;;3.73;;
31018;SDS011;17689;45.610;5.858;2022-10-18T16:10:47;6.83;;;3.60;;
31018;SDS011;17689;45.610;5.858;2022-10-18T16:13:13;6.13;;;3.60;;
31018;SDS011;17689;45.610;5.858;2022-10-18T16:15:39;14.70;;;5.07;;
31018;SDS011;17689;45.610;5.858;2022-10-18T16:18:05;11.77;;;6.43;;
31018;SDS011;17689;45.610;5.858;2022-10-18T16:20:31;10.33;;;4.83;;
31018;SDS011;17689;45.610;5.858;2022-10-18T16:22:57;15.10;;;4.10;;
31018;SDS011;17689;45.610;5.858;2022-10-18T16:25:24;9.73;;;3.13;;
31018;SDS011;17689;45.610;5.858;2022-10-18T16:27:50;6.30;;;3.60;;
31018;SDS011;17689;45.610;5.858;2022-10-18T16:30:17;7.10;;;2.97;;
31018;SDS011;17689;45.610;5.858;2022-10-18T16:32:44;7.33;;;3.30;;
31018;SDS011;17689;45.610;5.858;2022-10-18T16:35:12;5.07;;;3.17;;
31018;SDS011;17689;45.610;5.858;2022-10-18T16:37:39;13.00;;;3.30;;
31018;SDS011;17689;45.610;5.858;2022-10-18T16:40:17;5.73;;;3.10;;
31018;SDS011;17689;45.610;5.858;2022-10-18T16:42:46;7.23;;;3.33;;
31018;SDS011;17689;45.610;5.858;2022-10-18T16:45:12;10.87;;;3.63;;
31018;SDS011;17689;45.610;5.858;2022-10-18T16:47:38;7.93;;;3.20;;
31018;SDS011;17689;45.610;5.858;2022-10-18T16:50:04;7.23;;;3.10;;
31018;SDS011;17689;45.610;5.858;2022-10-18T16:52:32;8.87;;;3.40;;
31018;SDS011;17689;45.610;5.858;2022-10-18T16:54:59;8.73;;;3.20;;
31018;SDS011;17689;45.610;5.858;2022-10-18T16:57:25;8.03;;;3.50;;
31018;SDS011;17689;45.610;5.858;2022-10-18T16:59:51;14.40;;;3.80;;
31018;SDS011;17689;45.610;5.858;2022-10-18T17:02:17;6.83;;;3.37;;
31018;SDS011;17689;45.610;5.858;2022-10-18T17:04:43;5.80;;;3.27;;
31018;SDS011;17689;45.610;5.858;2022-10-18T17:07:11;6.70;;;3.13;;
31018;SDS011;17689;45.610;5.858;2022-10-18T17:09:42;9.00;;;3.03;;
31018;SDS011;17689;45.610;5.858;2022-10-18T17:12:09;6.90;;;3.30;;
31018;SDS011;17689;45.610;5.858;2022-10-18T17:14:35;9.03;;;3.13;;
31018;SDS011;17689;45.610;5.858;2022-10-18T17:17:01;7.60;;;3.17;;
31018;SDS011;17689;45.610;5.858;2022-10-18T17:19:27;5.70;;;2.90;;
31018;SDS011;17689;45.610;5.858;2022-10-18T17:21:54;6.97;;;3.10;;
31018;SDS011;17689;45.610;5.858;2022-10-18T17:24:20;5.57;;;2.83;;
31018;SDS011;17689;45.610;5.858;2022-10-18T17:26:46;7.93;;;3.17;;
31018;SDS011;17689;45.610;5.858;2022-10-18T17:29:12;9.43;;;3.37;;
31018;SDS011;17689;45.610;5.858;2022-10-18T17:31:38;5.33;;;3.00;;
31018;SDS011;17689;45.610;5.858;2022-10-18T17:34:05;9.33;;;3.33;;
31018;SDS011;17689;45.610;5.858;2022-10-18T17:36:32;8.93;;;3.13;;
31018;SDS011;17689;45.610;5.858;2022-10-18T17:38:58;6.53;;;3.00;;
31018;SDS011;17689;45.610;5.858;2022-10-18T17:41:27;6.07;;;2.93;;
31018;SDS011;17689;45.610;5.858;2022-10-18T17:43:54;7.77;;;3.27;;
31018;SDS011;17689;45.610;5.858;2022-10-18T17:46:20;9.27;;;3.23;;
31018;SDS011;17689;45.610;5.858;2022-10-18T17:48:47;6.50;;;3.10;;